createdAt,value
2023-01-12T00:01:06.127Z,54.48
2023-01-12T00:03:32.464Z,54.67
2023-01-12T00:06:01.001Z,54.51
2023-01-12T00:08:27.329Z,54.60
2023-01-12T00:10:56.354Z,54.64
2023-01-12T00:13:22.708Z,54.59
2023-01-12T00:16:07.604Z,54.58
2023-01-12T00:18:34.031Z,54.50
2023-01-12T00:21:00.409Z,54.52
2023-01-12T00:23:26.800Z,54.54
2023-01-12T00:25:54.255Z,54.52
2023-01-12T00:28:20.621Z,54.44
2023-01-12T00:30:46.953Z,54.40
2023-01-12T00:33:13.693Z,54.36
2023-01-12T00:35:40.052Z,54.30
2023-01-12T00:38:06.395Z,54.13
2023-01-12T00:40:32.804Z,54.34
2023-01-12T00:43:18.149Z,54.28
2023-01-12T00:45:44.504Z,54.37
2023-01-12T00:48:12.743Z,54.37
2023-01-12T00:50:39.065Z,54.28
2023-01-12T00:53:05.400Z,54.31
2023-01-12T00:55:31.742Z,54.21
2023-01-12T00:57:58.112Z,54.23
2023-01-12T01:00:24.485Z,54.27
2023-01-12T01:02:50.839Z,54.14
2023-01-12T01:05:17.854Z,54.29
2023-01-12T01:07:46.311Z,54.33
2023-01-12T01:10:12.994Z,54.12
2023-01-12T01:12:39.660Z,54.02
2023-01-12T01:15:06.161Z,54.12
2023-01-12T01:17:32.489Z,54.29
2023-01-12T01:19:58.813Z,54.34
2023-01-12T01:22:25.193Z,54.45
2023-01-12T01:24:51.531Z,54.43
2023-01-12T01:27:17.882Z,54.24
2023-01-12T01:29:44.230Z,54.29
2023-01-12T01:32:10.570Z,54.29
2023-01-12T01:34:37.114Z,54.19
2023-01-12T01:37:03.501Z,54.30
2023-01-12T01:39:29.862Z,54.24
2023-01-12T01:41:56.247Z,54.43
2023-01-12T01:44:31.882Z,54.19
2023-01-12T01:47:01.162Z,54.36
2023-01-12T01:49:31.810Z,54.33
2023-01-12T01:52:00.302Z,54.16
2023-01-12T01:54:27.331Z,54.29
2023-01-12T01:56:54.427Z,54.41
2023-01-12T01:59:21.910Z,54.18
2023-01-12T02:01:48.319Z,54.19
2023-01-12T02:04:14.726Z,54.12
2023-01-12T02:06:41.098Z,54.53
2023-01-12T02:09:14.902Z,54.31
2023-01-12T02:12:02.977Z,54.23
2023-01-12T02:14:48.125Z,54.13
2023-01-12T02:17:25.010Z,54.17
2023-01-12T02:19:53.983Z,54.31
2023-01-12T02:22:28.144Z,54.08
2023-01-12T02:25:17.439Z,53.96
2023-01-12T02:27:49.514Z,54.35
2023-01-12T02:30:36.968Z,54.02
2023-01-12T02:33:03.256Z,54.04
2023-01-12T02:35:35.355Z,54.01
2023-01-12T02:38:20.599Z,54.09
2023-01-12T02:40:59.128Z,54.09
2023-01-12T02:43:29.072Z,54.12
2023-01-12T02:46:14.364Z,54.08
2023-01-12T02:48:43.874Z,54.12
2023-01-12T02:51:11.836Z,54.05
2023-01-12T02:53:43.448Z,53.93
2023-01-12T02:56:10.008Z,53.73
2023-01-12T02:58:38.707Z,53.66
2023-01-12T03:01:05.203Z,53.79
2023-01-12T03:03:31.577Z,53.73
2023-01-12T03:05:58.020Z,53.68
2023-01-12T03:08:25.788Z,53.85
2023-01-12T03:11:01.242Z,53.51
2023-01-12T03:13:28.193Z,53.64
2023-01-12T03:15:55.264Z,53.44
2023-01-12T03:18:29.029Z,53.55
2023-01-12T03:20:56.271Z,53.55
2023-01-12T03:23:34.029Z,53.68
2023-01-12T03:26:00.570Z,53.49
2023-01-12T03:28:28.777Z,53.53
2023-01-12T03:30:56.533Z,53.48
2023-01-12T03:33:22.911Z,53.57
2023-01-12T03:35:51.228Z,53.36
2023-01-12T03:38:25.031Z,53.75
2023-01-12T03:40:53.741Z,53.58
2023-01-12T03:43:31.106Z,53.46
2023-01-12T03:45:58.962Z,53.39
2023-01-12T03:48:36.569Z,53.60
2023-01-12T03:51:23.078Z,53.60
2023-01-12T03:53:49.671Z,53.71
2023-01-12T03:56:16.592Z,53.72
2023-01-12T03:58:43.014Z,53.55
2023-01-12T04:01:09.435Z,53.64
2023-01-12T04:03:35.904Z,53.70
2023-01-12T04:06:02.293Z,53.72
2023-01-12T04:08:28.663Z,53.97
2023-01-12T04:10:56.189Z,53.74
2023-01-12T04:13:22.552Z,53.96
2023-01-12T04:15:49.003Z,54.02
2023-01-12T04:18:15.333Z,53.86
2023-01-12T04:20:41.663Z,53.75
2023-01-12T04:23:08.022Z,53.87
2023-01-12T04:25:34.395Z,53.89
2023-01-12T04:28:01.920Z,53.76
2023-01-12T04:30:28.615Z,53.94
2023-01-12T04:32:55.652Z,54.02
2023-01-12T04:35:22.118Z,54.10
2023-01-12T04:37:48.447Z,53.96
2023-01-12T04:40:14.854Z,53.92
2023-01-12T04:43:07.913Z,54.10
2023-01-12T04:45:35.480Z,53.97
2023-01-12T04:48:02.874Z,54.03
2023-01-12T04:50:29.209Z,53.98
2023-01-12T04:52:55.545Z,54.01
2023-01-12T04:55:21.908Z,53.98
2023-01-12T04:57:48.235Z,54.04
2023-01-12T05:00:14.582Z,53.99
2023-01-12T05:02:40.933Z,53.96
2023-01-12T05:05:08.611Z,53.92
2023-01-12T05:07:34.930Z,54.03
2023-01-12T05:10:20.098Z,53.97
2023-01-12T05:12:46.427Z,54.04
2023-01-12T05:15:12.787Z,54.11
2023-01-12T05:17:39.148Z,54.04
2023-01-12T05:20:06.292Z,54.19
2023-01-12T05:22:32.694Z,54.10
2023-01-12T05:24:59.018Z,53.86
2023-01-12T05:27:25.368Z,54.00
2023-01-12T05:29:52.732Z,53.97
2023-01-12T05:32:19.335Z,53.92
2023-01-12T05:34:45.670Z,53.85
2023-01-12T05:37:12.006Z,54.06
2023-01-12T05:39:38.342Z,54.07
2023-01-12T05:42:23.223Z,53.85
2023-01-12T05:44:49.740Z,54.25
2023-01-12T05:47:16.093Z,54.07
2023-01-12T05:49:42.437Z,54.19
2023-01-12T05:52:08.786Z,54.25
2023-01-12T05:54:35.116Z,54.20
2023-01-12T05:57:01.447Z,54.30
2023-01-12T05:59:27.851Z,54.18
2023-01-12T06:01:54.491Z,54.10
2023-01-12T06:04:21.132Z,54.24
2023-01-12T06:06:48.712Z,53.99
2023-01-12T06:09:15.086Z,54.13
2023-01-12T06:12:00.202Z,53.83
2023-01-12T06:14:26.827Z,53.99
2023-01-12T06:16:53.210Z,54.06
2023-01-12T06:19:19.542Z,54.08
2023-01-12T06:21:45.878Z,54.07
2023-01-12T06:24:12.294Z,54.04
2023-01-12T06:26:39.100Z,54.10
2023-01-12T06:29:07.008Z,53.99
2023-01-12T06:31:33.647Z,53.99
2023-01-12T06:34:00.100Z,53.87
2023-01-12T06:36:26.428Z,53.86
2023-01-12T06:38:52.937Z,53.96
2023-01-12T06:41:38.232Z,53.83
2023-01-12T06:44:04.730Z,53.85
2023-01-12T06:46:31.151Z,53.96
2023-01-12T06:48:58.086Z,53.81
2023-01-12T06:51:24.510Z,53.83
2023-01-12T06:53:50.846Z,53.91
2023-01-12T06:56:17.205Z,53.95
2023-01-12T06:58:43.560Z,53.71
2023-01-12T07:01:09.982Z,53.56
2023-01-12T07:03:36.407Z,53.80
2023-01-12T07:06:02.757Z,53.83
2023-01-12T07:08:29.086Z,54.00
2023-01-12T07:10:55.484Z,54.27
2023-01-12T07:13:22.023Z,54.37
2023-01-12T07:15:48.424Z,54.46
2023-01-12T07:18:14.776Z,54.14
2023-01-12T07:20:41.111Z,54.33
2023-01-12T07:23:07.491Z,54.69
2023-01-12T07:25:33.827Z,54.49
2023-01-12T07:28:00.263Z,54.80
2023-01-12T07:30:26.847Z,54.72
2023-01-12T07:32:53.419Z,54.87
2023-01-12T07:35:19.780Z,54.82
2023-01-12T07:37:53.845Z,55.01
2023-01-12T07:40:20.197Z,54.95
2023-01-12T07:42:46.519Z,54.87
2023-01-12T07:45:12.873Z,54.64
2023-01-12T07:47:39.336Z,54.18
2023-01-12T07:50:05.750Z,53.44
2023-01-12T07:52:32.113Z,52.67
2023-01-12T07:54:58.448Z,52.14
2023-01-12T07:57:24.795Z,51.68
2023-01-12T07:59:51.138Z,50.87
2023-01-12T08:02:18.113Z,50.54
2023-01-12T08:04:44.688Z,49.94
2023-01-12T08:07:11.083Z,49.46
2023-01-12T08:09:37.452Z,49.48
2023-01-12T08:12:03.860Z,49.38
2023-01-12T08:14:34.061Z,49.88
2023-01-12T08:17:01.681Z,49.74
2023-01-12T08:19:31.051Z,49.68
2023-01-12T08:21:58.800Z,49.44
2023-01-12T08:24:26.572Z,49.50
2023-01-12T08:26:53.183Z,49.14
2023-01-12T08:29:33.527Z,48.74
2023-01-12T08:32:01.609Z,49.13
2023-01-12T08:34:29.980Z,48.50
2023-01-12T08:36:56.369Z,47.73
2023-01-12T08:39:22.763Z,47.38
2023-01-12T08:41:49.153Z,47.30
2023-01-12T08:44:15.606Z,47.46
2023-01-12T08:46:44.947Z,47.91
2023-01-12T08:49:11.439Z,48.15
2023-01-12T08:51:39.489Z,48.20
2023-01-12T08:54:06.703Z,48.42
2023-01-12T08:56:33.362Z,48.51
2023-01-12T08:58:59.851Z,48.62
2023-01-12T09:01:27.399Z,49.05
2023-01-12T09:03:53.940Z,49.25
2023-01-12T09:06:21.623Z,49.19
2023-01-12T09:08:48.159Z,49.49
2023-01-12T09:11:14.747Z,49.51
2023-01-12T09:13:41.120Z,49.68
2023-01-12T09:16:12.684Z,49.72
2023-01-12T09:18:39.641Z,49.66
2023-01-12T09:21:06.994Z,49.72
2023-01-12T09:23:33.322Z,49.88
2023-01-12T09:26:05.945Z,49.98
2023-01-12T09:28:32.395Z,49.85
2023-01-12T09:31:02.113Z,49.96
2023-01-12T09:33:28.836Z,49.51
2023-01-12T09:35:59.395Z,49.99
2023-01-12T09:38:25.773Z,48.99
2023-01-12T09:40:52.263Z,49.23
2023-01-12T09:43:37.158Z,49.32
2023-01-12T09:46:21.852Z,49.48
2023-01-12T09:48:48.191Z,49.48
2023-01-12T09:51:16.927Z,49.65
2023-01-12T09:53:43.378Z,49.86
2023-01-12T09:56:15.152Z,49.83
2023-01-12T09:58:53.706Z,49.84
2023-01-12T10:01:28.666Z,50.03
2023-01-12T10:03:55.387Z,50.09
2023-01-12T10:06:21.714Z,50.10
2023-01-12T10:08:49.897Z,50.08
2023-01-12T10:11:34.738Z,50.21
2023-01-12T10:14:12.998Z,50.26
2023-01-12T10:16:47.397Z,50.32
2023-01-12T10:19:18.664Z,50.30
2023-01-12T10:21:45.008Z,50.35
2023-01-12T10:24:14.036Z,50.31
2023-01-12T10:26:43.900Z,50.31
2023-01-12T10:29:10.400Z,50.39
2023-01-12T10:31:36.813Z,50.42
2023-01-12T10:34:07.152Z,50.72
2023-01-12T10:36:34.483Z,50.52
2023-01-12T10:39:03.440Z,50.65
2023-01-12T10:41:30.335Z,50.33
2023-01-12T10:43:56.667Z,50.39
2023-01-12T10:46:24.072Z,50.61
2023-01-12T10:48:50.966Z,50.49
2023-01-12T10:51:20.407Z,50.65
2023-01-12T10:53:47.981Z,50.38
2023-01-12T10:56:33.561Z,50.39
2023-01-12T10:59:01.196Z,50.64
2023-01-12T11:01:41.945Z,50.59
2023-01-12T11:04:10.243Z,50.64
2023-01-12T11:06:38.129Z,50.59
2023-01-12T11:09:17.237Z,50.72
2023-01-12T11:11:43.616Z,50.63
2023-01-12T11:14:13.114Z,50.75
2023-01-12T11:16:41.550Z,50.70
2023-01-12T11:19:08.049Z,50.61
2023-01-12T11:21:34.724Z,50.61
2023-01-12T11:24:10.450Z,51.08
2023-01-12T11:26:36.964Z,50.99
2023-01-12T11:29:14.654Z,51.04
2023-01-12T11:31:40.971Z,50.82
2023-01-12T11:34:10.224Z,51.26
2023-01-12T11:36:38.709Z,50.91
2023-01-12T11:39:05.665Z,50.74
2023-01-12T11:41:39.410Z,51.61
2023-01-12T11:44:16.417Z,52.00
2023-01-12T11:46:46.745Z,52.27
2023-01-12T11:49:17.978Z,52.37
2023-01-12T11:51:47.237Z,52.46
2023-01-12T11:54:16.751Z,53.45
2023-01-12T11:56:50.713Z,53.60
2023-01-12T11:59:32.452Z,53.38
2023-01-12T12:02:05.963Z,53.28
2023-01-12T12:04:51.128Z,53.83
2023-01-12T12:07:20.745Z,54.06
2023-01-12T12:09:49.979Z,54.00
2023-01-12T12:12:22.911Z,53.66
2023-01-12T12:15:09.424Z,53.41
2023-01-12T12:17:44.763Z,53.40
2023-01-12T12:20:16.904Z,53.38
2023-01-12T12:23:01.841Z,52.95
2023-01-12T12:25:33.947Z,52.42
2023-01-12T12:28:20.481Z,52.63
2023-01-12T12:30:59.252Z,53.11
2023-01-12T12:33:50.542Z,53.19
2023-01-12T12:36:25.808Z,52.99
2023-01-12T12:39:10.830Z,52.62
2023-01-12T12:42:08.276Z,52.87
2023-01-12T12:45:12.152Z,52.87
2023-01-12T12:47:42.109Z,53.17
2023-01-12T12:50:20.189Z,53.06
2023-01-12T12:52:50.013Z,52.62
2023-01-12T12:55:16.394Z,52.54
2023-01-12T12:57:58.369Z,52.69
2023-01-12T13:00:28.866Z,52.21
2023-01-12T13:02:55.395Z,51.94
2023-01-12T13:05:40.675Z,51.68
2023-01-12T13:08:23.237Z,51.73
2023-01-12T13:10:50.372Z,51.68
2023-01-12T13:13:22.934Z,51.64
2023-01-12T13:15:50.231Z,51.48
2023-01-12T13:18:45.662Z,51.87
2023-01-12T13:21:27.433Z,51.82
2023-01-12T13:23:54.242Z,51.64
2023-01-12T13:26:32.590Z,51.32
2023-01-12T13:29:17.607Z,51.29
2023-01-12T13:31:43.951Z,51.64
2023-01-12T13:34:29.661Z,51.97
2023-01-12T13:37:22.354Z,52.50
2023-01-12T13:39:52.072Z,51.99
2023-01-12T13:42:38.027Z,52.06
2023-01-12T13:45:04.657Z,52.29
2023-01-12T13:47:33.059Z,52.68
2023-01-12T13:49:59.987Z,52.71
2023-01-12T13:52:33.929Z,52.76
2023-01-12T13:55:00.309Z,53.08
2023-01-12T13:57:27.345Z,52.82
2023-01-12T14:00:08.563Z,53.20
2023-01-12T14:02:40.792Z,53.10
2023-01-12T14:05:16.360Z,53.32
2023-01-12T14:07:45.395Z,53.19
2023-01-12T14:10:26.334Z,53.29
2023-01-12T14:13:28.143Z,52.81
2023-01-12T14:16:19.691Z,52.58
2023-01-12T14:18:47.018Z,52.47
2023-01-12T14:21:20.617Z,52.51
2023-01-12T14:23:46.967Z,52.39
2023-01-12T14:26:14.820Z,52.39
2023-01-12T14:28:42.623Z,52.12
2023-01-12T14:31:15.493Z,51.93
2023-01-12T14:33:47.130Z,52.30
2023-01-12T14:36:15.306Z,52.26
2023-01-12T14:38:42.090Z,52.47
2023-01-12T14:41:32.430Z,52.12
2023-01-12T14:44:17.404Z,51.84
2023-01-12T14:46:46.395Z,51.54
2023-01-12T14:49:19.774Z,52.10
2023-01-12T14:51:54.499Z,51.80
2023-01-12T14:54:23.923Z,51.88
2023-01-12T14:56:56.779Z,52.10
2023-01-12T14:59:24.632Z,51.84
2023-01-12T15:01:51.734Z,51.65
2023-01-12T15:04:19.703Z,51.73
2023-01-12T15:06:46.352Z,51.48
2023-01-12T15:09:26.210Z,51.82
2023-01-12T15:11:52.751Z,51.72
2023-01-12T15:14:25.876Z,51.74
2023-01-12T15:17:11.253Z,51.24
2023-01-12T15:19:56.158Z,51.16
2023-01-12T15:22:43.890Z,51.10
2023-01-12T15:25:32.865Z,51.34
2023-01-12T15:27:59.187Z,51.58
2023-01-12T15:30:25.503Z,51.67
2023-01-12T15:32:51.840Z,51.49
2023-01-12T15:35:21.190Z,51.24
2023-01-12T15:37:47.622Z,51.59
2023-01-12T15:40:14.030Z,51.54
2023-01-12T15:42:40.401Z,51.41
2023-01-12T15:45:18.928Z,51.27
2023-01-12T15:47:45.281Z,51.38
2023-01-12T15:50:11.629Z,51.46
2023-01-12T15:52:41.536Z,51.50
2023-01-12T15:55:10.260Z,51.32
2023-01-12T15:57:36.694Z,51.11
2023-01-12T16:00:03.227Z,51.32
2023-01-12T16:02:35.515Z,51.37
2023-01-12T16:05:05.080Z,51.26
2023-01-12T16:07:31.465Z,51.52
2023-01-12T16:09:58.054Z,51.41
2023-01-12T16:12:24.411Z,51.23
2023-01-12T16:14:50.953Z,51.08
2023-01-12T16:17:17.470Z,51.06
2023-01-12T16:19:43.834Z,51.26
2023-01-12T16:22:21.138Z,51.35
2023-01-12T16:24:48.067Z,50.96
2023-01-12T16:27:14.653Z,51.40
2023-01-12T16:29:41.095Z,51.06
2023-01-12T16:32:07.584Z,51.26
2023-01-12T16:34:33.993Z,50.73
2023-01-12T16:37:00.892Z,50.98
2023-01-12T16:39:27.823Z,50.87
2023-01-12T16:42:00.131Z,50.73
2023-01-12T16:44:27.172Z,50.93
2023-01-12T16:46:53.520Z,50.94
2023-01-12T16:49:19.882Z,51.13
2023-01-12T16:51:46.411Z,50.73
2023-01-12T16:54:12.844Z,50.80
2023-01-12T16:56:39.731Z,51.06
2023-01-12T16:59:07.740Z,50.84
2023-01-12T17:01:35.445Z,51.40
2023-01-12T17:04:01.929Z,51.37
2023-01-12T17:06:28.471Z,51.43
2023-01-12T17:08:54.843Z,51.27
2023-01-12T17:11:23.356Z,51.48
2023-01-12T17:13:52.286Z,51.70
2023-01-12T17:16:18.951Z,51.35
2023-01-12T17:18:45.595Z,51.12
2023-01-12T17:21:12.480Z,51.74
2023-01-12T17:23:39.343Z,51.71
2023-01-12T17:26:06.126Z,51.51
2023-01-12T17:28:34.873Z,50.91
2023-01-12T17:31:11.106Z,51.40
2023-01-12T17:33:37.595Z,51.43
2023-01-12T17:36:07.034Z,51.54
2023-01-12T17:38:33.470Z,51.00
2023-01-12T17:40:59.825Z,51.23
2023-01-12T17:43:26.318Z,50.96
2023-01-12T17:45:52.726Z,50.94
2023-01-12T17:48:19.630Z,50.68
2023-01-12T17:50:46.720Z,50.66
2023-01-12T17:53:13.268Z,50.72
2023-01-12T17:55:47.575Z,51.12
2023-01-12T17:58:17.354Z,51.45
2023-01-12T18:00:44.003Z,51.57
2023-01-12T18:03:10.506Z,51.61
2023-01-12T18:05:37.057Z,51.75
2023-01-12T18:08:03.428Z,51.83
2023-01-12T18:10:29.768Z,51.90
2023-01-12T18:12:56.144Z,51.98
2023-01-12T18:15:23.849Z,52.43
2023-01-12T18:17:50.684Z,52.51
2023-01-12T18:20:17.170Z,52.84
2023-01-12T18:22:43.559Z,53.39
2023-01-12T18:25:10.184Z,53.81
2023-01-12T18:27:36.520Z,54.15
2023-01-12T18:30:02.874Z,54.46
2023-01-12T18:32:29.223Z,54.47
2023-01-12T18:34:56.770Z,54.65
2023-01-12T18:37:23.185Z,54.48
2023-01-12T18:39:49.605Z,54.33
2023-01-12T18:42:34.770Z,54.89
2023-01-12T18:45:03.973Z,54.97
2023-01-12T18:47:49.200Z,54.63
2023-01-12T18:50:34.485Z,54.91
2023-01-12T18:53:19.316Z,54.87
2023-01-12T18:55:46.400Z,55.02
2023-01-12T18:58:12.738Z,54.83
2023-01-12T19:00:39.148Z,54.86
2023-01-12T19:03:06.146Z,54.61
2023-01-12T19:05:36.945Z,54.67
2023-01-12T19:08:26.198Z,54.73
2023-01-12T19:10:52.575Z,54.62
2023-01-12T19:13:37.785Z,54.44
2023-01-12T19:16:22.650Z,54.82
2023-01-12T19:18:48.996Z,54.82
2023-01-12T19:21:34.077Z,54.76
2023-01-12T19:24:19.043Z,54.64
2023-01-12T19:27:03.666Z,55.23
2023-01-12T19:29:30.064Z,55.16
2023-01-12T19:31:56.387Z,55.35
2023-01-12T19:34:24.700Z,56.23
2023-01-12T19:36:51.071Z,54.89
2023-01-12T19:39:26.435Z,55.05
2023-01-12T19:42:11.232Z,54.50
2023-01-12T19:44:37.612Z,55.13
2023-01-12T19:47:03.944Z,55.11
2023-01-12T19:49:30.281Z,55.09
2023-01-12T19:51:56.616Z,55.05
2023-01-12T19:54:22.944Z,54.70
2023-01-12T19:56:49.280Z,54.85
2023-01-12T19:59:15.604Z,54.80
2023-01-12T20:01:42.078Z,54.67
2023-01-12T20:04:08.662Z,54.73
2023-01-12T20:06:35.640Z,54.63
2023-01-12T20:09:01.969Z,54.60
2023-01-12T20:11:28.370Z,54.53
2023-01-12T20:13:54.709Z,54.53
2023-01-12T20:16:21.080Z,54.46
2023-01-12T20:18:48.630Z,54.59
2023-01-12T20:21:15.315Z,54.44
2023-01-12T20:23:41.699Z,54.58
2023-01-12T20:26:08.201Z,54.66
2023-01-12T20:28:34.676Z,54.56
2023-01-12T20:31:01.000Z,54.31
2023-01-12T20:33:28.310Z,54.44
2023-01-12T20:35:54.773Z,54.60
2023-01-12T20:38:22.563Z,54.42
2023-01-12T20:40:49.525Z,54.72
2023-01-12T20:43:15.881Z,54.50
2023-01-12T20:45:42.823Z,54.71
2023-01-12T20:48:09.912Z,54.46
2023-01-12T20:50:37.714Z,54.50
2023-01-12T20:53:04.252Z,54.48
2023-01-12T20:55:30.750Z,54.67
2023-01-12T20:57:57.306Z,54.65
2023-01-12T21:00:23.827Z,54.54
2023-01-12T21:02:50.392Z,54.56
2023-01-12T21:05:16.885Z,54.44
2023-01-12T21:07:43.472Z,54.52
2023-01-12T21:10:12.049Z,54.43
2023-01-12T21:12:38.620Z,54.65
2023-01-12T21:15:05.391Z,54.55
2023-01-12T21:17:31.915Z,54.38
2023-01-12T21:19:58.469Z,54.44
2023-01-12T21:22:25.120Z,54.41
2023-01-12T21:24:51.644Z,54.71
2023-01-12T21:27:18.209Z,54.64
2023-01-12T21:29:45.928Z,54.74
2023-01-12T21:32:12.338Z,54.69
2023-01-12T21:34:38.677Z,54.70
2023-01-12T21:37:05.004Z,54.62
2023-01-12T21:39:31.336Z,54.63
2023-01-12T21:42:16.655Z,54.56
2023-01-12T21:44:43.051Z,54.67
2023-01-12T21:47:09.416Z,54.52
2023-01-12T21:49:35.762Z,54.77
2023-01-12T21:52:02.094Z,54.58
2023-01-12T21:54:28.914Z,54.48
2023-01-12T21:56:55.266Z,54.53
2023-01-12T21:59:21.721Z,54.44
2023-01-12T22:01:48.524Z,54.56
2023-01-12T22:04:14.959Z,54.54
2023-01-12T22:06:41.422Z,54.57
2023-01-12T22:09:07.811Z,54.54
2023-01-12T22:11:34.140Z,54.36
2023-01-12T22:14:00.469Z,54.39
2023-01-12T22:16:27.091Z,54.48
2023-01-12T22:18:53.563Z,54.54
2023-01-12T22:21:20.380Z,54.42
2023-01-12T22:23:46.720Z,54.42
2023-01-12T22:26:13.389Z,54.50
2023-01-12T22:28:40.405Z,54.42
2023-01-12T22:31:10.278Z,54.37
2023-01-12T22:33:36.696Z,54.54
2023-01-12T22:36:03.487Z,54.55
2023-01-12T22:38:29.846Z,54.33
2023-01-12T22:40:56.160Z,54.58
2023-01-12T22:43:28.937Z,54.28
2023-01-12T22:45:57.806Z,54.24
2023-01-12T22:48:27.579Z,54.39
2023-01-12T22:50:54.638Z,54.35
2023-01-12T22:53:22.064Z,54.53
2023-01-12T22:55:48.424Z,54.49
2023-01-12T22:58:14.795Z,54.45
2023-01-12T23:00:41.583Z,54.40
2023-01-12T23:03:08.971Z,54.45
2023-01-12T23:05:36.353Z,54.49
2023-01-12T23:08:03.875Z,54.54
2023-01-12T23:10:30.366Z,54.50
2023-01-12T23:13:13.967Z,54.56
2023-01-12T23:15:40.848Z,54.50
2023-01-12T23:18:07.324Z,54.66
2023-01-12T23:20:35.699Z,54.49
2023-01-12T23:23:05.539Z,54.55
2023-01-12T23:25:32.735Z,54.46
2023-01-12T23:27:59.412Z,54.40
2023-01-12T23:30:27.319Z,54.45
2023-01-12T23:32:53.867Z,54.49
2023-01-12T23:35:20.372Z,54.31
2023-01-12T23:37:46.836Z,54.45
2023-01-12T23:40:13.268Z,54.83
2023-01-12T23:42:39.713Z,54.66
2023-01-12T23:45:06.243Z,54.49
2023-01-12T23:47:33.023Z,54.46
2023-01-12T23:49:59.579Z,54.51
2023-01-12T23:52:26.014Z,54.46
2023-01-12T23:54:55.718Z,54.50
2023-01-12T23:57:22.768Z,54.65
2023-01-12T23:59:49.345Z,54.64
